Time;durP1;ratioP1;P1;durP2;ratioP2;P2;SDS_P1;SDS_P2;PMS_P1;PMS_P2;Temp;Humidity;BMP_temperature;BMP_pressure;BME280_temperature;BME280_humidity;BME280_pressure;Samples;Min_cycle;Max_cycle;Signal;HPM_P1;HPM_P2
2023/07/14 00:01:49;;;;;;;5.47;2.00;;;;;;;;;;4971026;28;20031;-80
2023/07/14 00:04:33;;;;;;;4.78;1.90;;;;;;;;;;4971708;28;20038;-78
2023/07/14 00:07:01;;;;;;;2.78;1.80;;;;;;;;;;4973773;28;20023;-77
2023/07/14 00:09:30;;;;;;;2.08;1.75;;;;;;;;;;4971101;29;20028;-78
2023/07/14 00:11:58;;;;;;;3.67;1.70;;;;;;;;;;4968161;29;20023;-77
2023/07/14 00:14:26;;;;;;;4.43;1.50;;;;;;;;;;4949946;29;20102;-80
2023/07/14 00:16:53;;;;;;;3.25;1.83;;;;;;;;;;4981275;28;20037;-79
2023/07/14 00:19:20;;;;;;;2.35;1.50;;;;;;;;;;4981956;28;20023;-81
2023/07/14 00:21:47;;;;;;;3.55;2.15;;;;;;;;;;4964802;29;20105;-79
2023/07/14 00:24:18;;;;;;;2.28;1.83;;;;;;;;;;4965179;28;20067;-79
2023/07/14 00:26:49;;;;;;;3.88;1.50;;;;;;;;;;4965736;28;20027;-80
2023/07/14 00:29:52;;;;;;;2.78;1.80;;;;;;;;;;4978501;28;20054;-78
2023/07/14 00:32:22;;;;;;;1.95;1.40;;;;;;;;;;4955581;28;20030;-79
2023/07/14 00:34:49;;;;;;;7.10;2.10;;;;;;;;;;4983564;28;20042;-80
2023/07/14 00:37:15;;;;;;;3.40;1.63;;;;;;;;;;4967423;28;20042;-76
2023/07/14 00:39:43;;;;;;;3.65;1.73;;;;;;;;;;4966819;28;20381;-80
2023/07/14 00:42:15;;;;;;;2.65;1.58;;;;;;;;;;4982880;28;20035;-80
2023/07/14 00:44:45;;;;;;;4.05;1.55;;;;;;;;;;4966670;28;20094;-79
2023/07/14 00:47:38;;;;;;;1.85;1.50;;;;;;;;;;4967009;28;20028;-79
2023/07/14 00:50:05;;;;;;;3.75;1.67;;;;;;;;;;4980568;28;20046;-80
2023/07/14 00:52:40;;;;;;;1.50;1.40;;;;;;;;;;4967791;28;20029;-79
2023/07/14 00:55:43;;;;;;;3.88;1.65;;;;;;;;;;4969652;28;20069;-78
2023/07/14 00:58:19;;;;;;;3.50;1.70;;;;;;;;;;4892250;29;20020;-78
2023/07/14 01:01:08;;;;;;;2.95;1.50;;;;;;;;;;4973346;28;20479;-78
2023/07/14 01:03:39;;;;;;;2.25;1.70;;;;;;;;;;4982697;28;20031;-80
2023/07/14 01:06:08;;;;;;;6.18;1.75;;;;;;;;;;4984611;28;20059;-78
2023/07/14 01:08:36;;;;;;;3.22;1.23;;;;;;;;;;4965597;28;20046;-79
2023/07/14 01:11:03;;;;;;;1.67;1.55;;;;;;;;;;4965400;28;20106;-78
2023/07/14 01:13:32;;;;;;;1.58;1.30;;;;;;;;;;4968352;28;20046;-80
2023/07/14 01:15:58;;;;;;;3.42;1.63;;;;;;;;;;4979443;28;20030;-78
2023/07/14 01:18:25;;;;;;;1.80;1.50;;;;;;;;;;4972993;28;20023;-79
2023/07/14 01:20:51;;;;;;;3.72;1.70;;;;;;;;;;4972841;28;20034;-80
2023/07/14 01:23:25;;;;;;;5.15;1.60;;;;;;;;;;4985911;28;20031;-76
2023/07/14 01:26:20;;;;;;;4.10;1.90;;;;;;;;;;4968466;28;20034;-77
2023/07/14 01:28:47;;;;;;;3.80;1.70;;;;;;;;;;4973233;28;20053;-80
2023/07/14 01:31:20;;;;;;;3.17;1.73;;;;;;;;;;4988456;28;20037;-79
2023/07/14 01:33:52;;;;;;;4.13;1.67;;;;;;;;;;4968154;28;20058;-77
2023/07/14 01:36:21;;;;;;;2.22;1.73;;;;;;;;;;4982738;28;20042;-78
2023/07/14 01:38:48;;;;;;;3.15;1.80;;;;;;;;;;4950561;28;20023;-79
2023/07/14 01:41:14;;;;;;;3.40;1.45;;;;;;;;;;4964878;28;20037;-78
2023/07/14 01:43:41;;;;;;;3.42;1.88;;;;;;;;;;4965604;28;20027;-79
2023/07/14 01:46:15;;;;;;;2.40;1.60;;;;;;;;;;4986924;28;20530;-79
2023/07/14 01:48:57;;;;;;;6.03;1.90;;;;;;;;;;4988185;28;20033;-78
2023/07/14 01:51:28;;;;;;;2.65;1.50;;;;;;;;;;4989606;28;20049;-79
2023/07/14 01:54:14;;;;;;;2.15;1.20;;;;;;;;;;5004079;28;20033;-78
2023/07/14 01:56:42;;;;;;;3.03;1.52;;;;;;;;;;4987750;28;20030;-78
2023/07/14 01:59:21;;;;;;;3.05;1.38;;;;;;;;;;4979485;28;20026;-79
2023/07/14 02:01:52;;;;;;;1.92;1.40;;;;;;;;;;4968630;28;20034;-79
2023/07/14 02:04:22;;;;;;;4.32;1.70;;;;;;;;;;4967367;28;20038;-80
2023/07/14 02:06:58;;;;;;;4.50;1.70;;;;;;;;;;4966869;28;20033;-81
2023/07/14 02:09:26;;;;;;;2.65;1.50;;;;;;;;;;4966151;28;20035;-79
2023/07/14 02:12:00;;;;;;;2.75;1.52;;;;;;;;;;4951074;28;20038;-78
2023/07/14 02:14:35;;;;;;;2.75;1.65;;;;;;;;;;4982954;28;20073;-78
2023/07/14 02:17:16;;;;;;;1.20;1.10;;;;;;;;;;4966392;28;20415;-79
2023/07/14 02:19:42;;;;;;;2.25;1.77;;;;;;;;;;4952884;28;20034;-77
2023/07/14 02:22:10;;;;;;;3.60;1.35;;;;;;;;;;4983233;28;20460;-79
2023/07/14 02:24:37;;;;;;;2.28;1.48;;;;;;;;;;4966901;28;20069;-79
2023/07/14 02:27:05;;;;;;;2.88;1.90;;;;;;;;;;4966145;28;20073;-78
2023/07/14 02:29:31;;;;;;;4.07;2.67;;;;;;;;;;4962131;29;20047;-80
2023/07/14 02:32:21;;;;;;;7.10;2.00;;;;;;;;;;4963306;28;20118;-80
2023/07/14 02:34:54;;;;;;;2.78;1.50;;;;;;;;;;4960258;29;20037;-77
2023/07/14 02:37:51;;;;;;;1.73;1.63;;;;;;;;;;4961527;29;20031;-79
2023/07/14 02:40:20;;;;;;;2.65;1.63;;;;;;;;;;4965658;28;20154;-78
2023/07/14 02:42:51;;;;;;;3.35;2.15;;;;;;;;;;4964401;28;20033;-79
2023/07/14 02:45:20;;;;;;;2.55;1.70;;;;;;;;;;4964450;28;20023;-78
2023/07/14 02:47:48;;;;;;;1.92;1.50;;;;;;;;;;4962674;28;20503;-78
2023/07/14 02:50:14;;;;;;;4.57;1.60;;;;;;;;;;4961080;29;20058;-80
2023/07/14 02:52:40;;;;;;;4.13;1.52;;;;;;;;;;4946825;29;20086;-79
2023/07/14 02:55:07;;;;;;;3.53;1.80;;;;;;;;;;4964402;28;20365;-78
2023/07/14 02:57:34;;;;;;;6.38;1.48;;;;;;;;;;4978818;28;20031;-80
2023/07/14 03:00:07;;;;;;;1.90;1.67;;;;;;;;;;4964791;28;20086;-79
2023/07/14 03:02:40;;;;;;;4.57;1.65;;;;;;;;;;4968037;28;20045;-79
2023/07/14 03:05:08;;;;;;;8.27;2.50;;;;;;;;;;4973735;29;20031;-77
2023/07/14 03:07:37;;;;;;;3.88;1.70;;;;;;;;;;4973008;28;20022;-78
2023/07/14 03:10:04;;;;;;;6.53;1.83;;;;;;;;;;4971735;28;20031;-79
2023/07/14 03:12:30;;;;;;;4.00;2.00;;;;;;;;;;4970315;29;20034;-79
2023/07/14 03:14:57;;;;;;;2.15;1.52;;;;;;;;;;4963095;29;20395;-80
2023/07/14 03:17:25;;;;;;;2.28;1.23;;;;;;;;;;4955612;28;20082;-79
2023/07/14 03:19:51;;;;;;;6.97;2.13;;;;;;;;;;4959338;28;20038;-79
2023/07/14 03:22:17;;;;;;;3.47;1.52;;;;;;;;;;4962604;29;20027;-79
2023/07/14 03:24:43;;;;;;;2.97;1.38;;;;;;;;;;4962821;29;20364;-79
2023/07/14 03:27:09;;;;;;;2.13;1.50;;;;;;;;;;4964306;28;20082;-78
2023/07/14 03:29:35;;;;;;;2.65;1.42;;;;;;;;;;4964354;29;20039;-79
2023/07/14 03:32:01;;;;;;;4.70;2.13;;;;;;;;;;4967729;29;20417;-80
2023/07/14 03:34:26;;;;;;;2.33;1.63;;;;;;;;;;4970846;28;20087;-78
2023/07/14 03:36:53;;;;;;;3.80;1.58;;;;;;;;;;4963524;29;20062;-80
2023/07/14 03:39:30;;;;;;;2.15;1.42;;;;;;;;;;4962455;29;20026;-78
2023/07/14 03:41:57;;;;;;;2.95;1.38;;;;;;;;;;4964209;29;20019;-79
2023/07/14 03:44:27;;;;;;;3.90;1.70;;;;;;;;;;4964319;29;20034;-77
2023/07/14 03:46:54;;;;;;;2.33;1.55;;;;;;;;;;4964892;28;20035;-78
2023/07/14 03:49:20;;;;;;;3.75;1.40;;;;;;;;;;4962961;29;20027;-79
2023/07/14 03:52:06;;;;;;;3.10;1.40;;;;;;;;;;4965409;29;20032;-80
2023/07/14 03:54:33;;;;;;;3.97;1.83;;;;;;;;;;4969406;28;20023;-78
2023/07/14 03:56:59;;;;;;;4.18;1.42;;;;;;;;;;4971930;29;20039;-79
2023/07/14 03:59:26;;;;;;;1.90;1.42;;;;;;;;;;4963236;29;20020;-78
2023/07/14 04:01:52;;;;;;;4.55;1.67;;;;;;;;;;4946479;29;20023;-80
2023/07/14 04:04:19;;;;;;;1.88;1.65;;;;;;;;;;4964163;29;20031;-80
2023/07/14 04:06:45;;;;;;;3.30;1.45;;;;;;;;;;4967846;28;20082;-78
2023/07/14 04:09:11;;;;;;;3.92;1.52;;;;;;;;;;4966905;28;20031;-78
2023/07/14 04:11:37;;;;;;;7.57;2.05;;;;;;;;;;4965201;28;20035;-79
2023/07/14 04:14:04;;;;;;;4.22;1.83;;;;;;;;;;4965424;29;20095;-77
2023/07/14 04:16:36;;;;;;;4.43;1.83;;;;;;;;;;4965307;28;20028;-80
2023/07/14 04:19:03;;;;;;;5.25;1.85;;;;;;;;;;4946917;29;20285;-79
2023/07/14 04:21:30;;;;;;;2.38;1.60;;;;;;;;;;4962770;29;20031;-78
2023/07/14 04:23:57;;;;;;;3.92;1.75;;;;;;;;;;4963373;28;20067;-79
2023/07/14 04:26:25;;;;;;;4.85;1.70;;;;;;;;;;4965204;28;20031;-79
2023/07/14 04:28:53;;;;;;;4.68;1.98;;;;;;;;;;4973496;28;20057;-80
2023/07/14 04:31:19;;;;;;;3.22;1.70;;;;;;;;;;4967922;28;20046;-79
2023/07/14 04:33:47;;;;;;;3.35;1.85;;;;;;;;;;4966696;28;20023;-79
2023/07/14 04:36:14;;;;;;;1.90;1.60;;;;;;;;;;4967410;28;20554;-78
2023/07/14 04:39:01;;;;;;;4.82;1.92;;;;;;;;;;4950897;28;20058;-78
2023/07/14 04:41:27;;;;;;;2.13;1.70;;;;;;;;;;4966333;28;20031;-80
2023/07/14 04:43:55;;;;;;;5.43;1.80;;;;;;;;;;4984708;28;20027;-79
2023/07/14 04:46:20;;;;;;;4.70;1.88;;;;;;;;;;4967318;28;20057;-80
2023/07/14 04:48:48;;;;;;;3.88;2.30;;;;;;;;;;4983594;28;20031;-79
2023/07/14 04:51:15;;;;;;;5.20;1.90;;;;;;;;;;4966884;28;20022;-79
2023/07/14 04:53:42;;;;;;;4.68;1.75;;;;;;;;;;4966156;28;20093;-79
2023/07/14 04:56:08;;;;;;;5.40;2.53;;;;;;;;;;4966413;28;20037;-80
2023/07/14 04:58:39;;;;;;;8.63;6.10;;;;;;;;;;4965661;28;20103;-79
2023/07/14 05:01:06;;;;;;;3.85;1.98;;;;;;;;;;4966144;28;20094;-79
2023/07/14 05:03:39;;;;;;;5.90;2.45;;;;;;;;;;4981791;28;20034;-79
2023/07/14 05:06:05;;;;;;;10.50;3.75;;;;;;;;;;4967482;28;20082;-77
2023/07/14 05:08:31;;;;;;;3.83;2.13;;;;;;;;;;4971702;28;20062;-78
2023/07/14 05:11:12;;;;;;;8.07;2.50;;;;;;;;;;4987098;28;20023;-78
2023/07/14 05:13:41;;;;;;;8.77;2.13;;;;;;;;;;4974550;28;20094;-76
2023/07/14 05:16:07;;;;;;;4.28;1.90;;;;;;;;;;4972787;28;20023;-74
2023/07/14 05:18:34;;;;;;;6.75;3.40;;;;;;;;;;4970535;28;20030;-73
2023/07/14 05:21:04;;;;;;;3.28;1.67;;;;;;;;;;4959045;28;20034;-77
2023/07/14 05:23:32;;;;;;;7.57;1.98;;;;;;;;;;4959100;28;20531;-75
2023/07/14 05:25:59;;;;;;;3.90;1.70;;;;;;;;;;4957803;28;20038;-75
2023/07/14 05:28:24;;;;;;;11.50;2.78;;;;;;;;;;4958933;28;20105;-75
2023/07/14 05:30:51;;;;;;;5.65;1.90;;;;;;;;;;4958552;28;20031;-76
2023/07/14 05:33:18;;;;;;;4.78;1.80;;;;;;;;;;4958979;28;20039;-74
2023/07/14 05:35:45;;;;;;;7.22;4.13;;;;;;;;;;4975169;28;20121;-75
2023/07/14 05:38:14;;;;;;;5.22;2.13;;;;;;;;;;4974354;28;20101;-76
2023/07/14 05:40:42;;;;;;;6.28;1.95;;;;;;;;;;4975872;28;20061;-75
2023/07/14 05:43:08;;;;;;;5.57;2.70;;;;;;;;;;4976542;28;20053;-76
2023/07/14 05:45:53;;;;;;;7.65;3.90;;;;;;;;;;4975906;28;20542;-77
2023/07/14 05:48:19;;;;;;;7.10;2.13;;;;;;;;;;4960404;28;20027;-76
2023/07/14 05:50:48;;;;;;;7.15;2.60;;;;;;;;;;4960219;28;20050;-75
2023/07/14 05:53:20;;;;;;;3.10;2.15;;;;;;;;;;4976904;28;20026;-75
2023/07/14 05:55:47;;;;;;;3.67;2.00;;;;;;;;;;4932744;28;20491;-76
2023/07/14 05:58:16;;;;;;;5.38;2.03;;;;;;;;;;4976933;28;20054;-76
2023/07/14 06:00:57;;;;;;;4.43;1.90;;;;;;;;;;4958992;28;20043;-77
2023/07/14 06:03:22;;;;;;;7.60;2.60;;;;;;;;;;4956290;28;20043;-76
2023/07/14 06:05:49;;;;;;;5.70;2.47;;;;;;;;;;4969596;28;20031;-76
2023/07/14 06:08:15;;;;;;;5.88;2.97;;;;;;;;;;4954539;28;20031;-76
2023/07/14 06:10:40;;;;;;;3.17;1.80;;;;;;;;;;4982775;28;20062;-76
2023/07/14 06:13:06;;;;;;;5.78;2.55;;;;;;;;;;4975817;28;20124;-76
2023/07/14 06:15:31;;;;;;;4.20;2.25;;;;;;;;;;4965888;28;20030;-76
2023/07/14 06:17:57;;;;;;;3.83;2.05;;;;;;;;;;4961063;28;20499;-77
2023/07/14 06:20:23;;;;;;;6.68;1.80;;;;;;;;;;4956486;28;20573;-76
2023/07/14 06:22:49;;;;;;;4.90;1.83;;;;;;;;;;4956268;28;20045;-77
2023/07/14 06:25:15;;;;;;;6.13;4.15;;;;;;;;;;4973702;28;20136;-77
2023/07/14 06:27:41;;;;;;;2.83;1.60;;;;;;;;;;4957796;28;20026;-76
2023/07/14 06:30:08;;;;;;;7.80;2.08;;;;;;;;;;4990142;28;20810;-78
2023/07/14 06:32:34;;;;;;;3.33;1.70;;;;;;;;;;4954452;28;20035;-76
2023/07/14 06:34:59;;;;;;;3.65;1.70;;;;;;;;;;4967275;28;20035;-76
2023/07/14 06:37:25;;;;;;;5.13;1.85;;;;;;;;;;4953857;28;20051;-74
2023/07/14 06:39:51;;;;;;;3.78;2.25;;;;;;;;;;4953209;28;20070;-76
2023/07/14 06:42:17;;;;;;;10.52;2.08;;;;;;;;;;4951749;29;20031;-77
2023/07/14 06:44:43;;;;;;;5.25;1.65;;;;;;;;;;4935521;29;20038;-77
2023/07/14 06:47:08;;;;;;;3.63;1.95;;;;;;;;;;4971830;28;20080;-78
2023/07/14 06:49:34;;;;;;;3.58;2.10;;;;;;;;;;4966654;28;20023;-76
2023/07/14 06:52:00;;;;;;;3.58;2.15;;;;;;;;;;4986916;28;20026;-75
2023/07/14 06:54:26;;;;;;;7.13;1.85;;;;;;;;;;4990866;28;20036;-76
2023/07/14 06:56:52;;;;;;;2.65;1.98;;;;;;;;;;4973145;28;20061;-76
2023/07/14 06:59:17;;;;;;;4.35;1.65;;;;;;;;;;4988799;28;20022;-77
2023/07/14 07:01:43;;;;;;;2.00;1.58;;;;;;;;;;4970174;28;20038;-75
2023/07/14 07:04:08;;;;;;;6.00;2.33;;;;;;;;;;4961376;28;20113;-77
2023/07/14 07:06:34;;;;;;;4.00;1.85;;;;;;;;;;4953989;28;20038;-75
2023/07/14 07:08:59;;;;;;;6.05;2.55;;;;;;;;;;4948889;28;20027;-76
2023/07/14 07:11:25;;;;;;;5.30;1.70;;;;;;;;;;4971520;28;20041;-76
2023/07/14 07:13:50;;;;;;;4.47;2.08;;;;;;;;;;4953829;28;20031;-76
2023/07/14 07:16:16;;;;;;;4.00;1.95;;;;;;;;;;4963702;28;20552;-75
2023/07/14 07:18:41;;;;;;;3.80;1.50;;;;;;;;;;4973159;28;20026;-76
2023/07/14 07:21:08;;;;;;;7.43;2.10;;;;;;;;;;4967819;28;20121;-75
2023/07/14 07:23:34;;;;;;;3.05;1.88;;;;;;;;;;4972838;28;20181;-75
2023/07/14 07:26:00;;;;;;;5.32;1.85;;;;;;;;;;4944047;29;20035;-76
2023/07/14 07:28:25;;;;;;;6.72;2.35;;;;;;;;;;4952568;29;20150;-75
2023/07/14 07:30:51;;;;;;;4.07;2.00;;;;;;;;;;4945436;28;20121;-75
2023/07/14 07:33:17;;;;;;;2.38;1.63;;;;;;;;;;4956826;28;20054;-77
2023/07/14 07:35:42;;;;;;;2.00;1.42;;;;;;;;;;4960262;28;20038;-75
2023/07/14 07:38:10;;;;;;;5.35;2.15;;;;;;;;;;4977667;28;20106;-75
2023/07/14 07:40:46;;;;;;;6.80;2.13;;;;;;;;;;4969467;28;20049;-75
2023/07/14 07:43:12;;;;;;;3.17;1.75;;;;;;;;;;4948432;28;20150;-75
2023/07/14 07:45:38;;;;;;;4.95;2.80;;;;;;;;;;4950844;28;20089;-76
2023/07/14 07:48:05;;;;;;;2.35;1.58;;;;;;;;;;4943685;29;20428;-77
2023/07/14 07:50:31;;;;;;;5.78;1.70;;;;;;;;;;4955092;28;20031;-75
2023/07/14 07:52:56;;;;;;;5.45;1.42;;;;;;;;;;4958648;28;20066;-77
2023/07/14 07:55:22;;;;;;;4.88;1.85;;;;;;;;;;4971520;28;20336;-78
2023/07/14 07:57:47;;;;;;;5.80;2.55;;;;;;;;;;4952753;28;20122;-77
2023/07/14 08:00:15;;;;;;;7.05;1.92;;;;;;;;;;4967945;28;20031;-78
2023/07/14 08:02:41;;;;;;;3.70;1.83;;;;;;;;;;4989705;28;20030;-77
2023/07/14 08:05:12;;;;;;;4.18;1.52;;;;;;;;;;4941694;28;20039;-76
2023/07/14 08:07:37;;;;;;;6.47;1.95;;;;;;;;;;4965961;28;20082;-77
2023/07/14 08:10:03;;;;;;;4.18;1.92;;;;;;;;;;4946564;28;20170;-76
2023/07/14 08:12:29;;;;;;;3.88;1.88;;;;;;;;;;4968127;28;20506;-76
2023/07/14 08:14:56;;;;;;;4.53;1.63;;;;;;;;;;4949265;29;20517;-75
2023/07/14 08:17:24;;;;;;;3.58;1.65;;;;;;;;;;4962804;28;20023;-76
2023/07/14 08:19:50;;;;;;;6.85;2.47;;;;;;;;;;4954221;28;20034;-76
2023/07/14 08:22:16;;;;;;;3.08;1.40;;;;;;;;;;4953056;28;20310;-75
2023/07/14 08:24:42;;;;;;;5.88;1.52;;;;;;;;;;4956898;28;20027;-75
2023/07/14 08:27:07;;;;;;;5.85;2.08;;;;;;;;;;4961931;28;20037;-76
2023/07/14 08:29:33;;;;;;;2.13;1.48;;;;;;;;;;4976022;28;20360;-75
2023/07/14 08:31:59;;;;;;;2.40;1.42;;;;;;;;;;4963453;28;20106;-76
2023/07/14 08:34:27;;;;;;;7.22;2.13;;;;;;;;;;4951996;28;20815;-75
2023/07/14 08:36:53;;;;;;;3.25;1.73;;;;;;;;;;4959645;28;20054;-77
2023/07/14 08:39:18;;;;;;;6.72;2.13;;;;;;;;;;4983050;28;20812;-76
2023/07/14 08:41:46;;;;;;;3.28;1.35;;;;;;;;;;4952652;28;20113;-75
2023/07/14 08:44:58;;;;;;;3.85;1.40;;;;;;;;;;4958569;28;20062;-77
2023/07/14 08:48:04;;;;;;;3.53;1.40;;;;;;;;;;4947549;28;20031;-75
2023/07/14 08:50:30;;;;;;;7.88;1.52;;;;;;;;;;4979412;28;20027;-75
2023/07/14 08:53:03;;;;;;;6.43;1.40;;;;;;;;;;4952522;28;20186;-75
2023/07/14 08:55:32;;;;;;;5.22;1.77;;;;;;;;;;4952018;28;20159;-76
2023/07/14 08:58:24;;;;;;;2.03;1.50;;;;;;;;;;4951861;28;20110;-77
2023/07/14 09:00:49;;;;;;;8.27;1.67;;;;;;;;;;4963879;28;20102;-76
2023/07/14 09:03:18;;;;;;;6.22;1.55;;;;;;;;;;4969522;28;20146;-77
2023/07/14 09:05:53;;;;;;;3.83;2.00;;;;;;;;;;4966418;28;20045;-76
2023/07/14 09:08:26;;;;;;;3.20;1.20;;;;;;;;;;4965733;28;20046;-74
2023/07/14 09:11:05;;;;;;;7.00;1.70;;;;;;;;;;4976617;28;20029;-75
2023/07/14 09:13:40;;;;;;;9.45;5.72;;;;;;;;;;4987569;28;20030;-75
2023/07/14 09:16:09;;;;;;;1.63;1.45;;;;;;;;;;4965709;28;20077;-77
2023/07/14 09:19:05;;;;;;;4.57;2.30;;;;;;;;;;4955554;28;20030;-80
2023/07/14 09:21:30;;;;;;;6.57;1.80;;;;;;;;;;4957674;28;20582;-77
2023/07/14 09:24:20;;;;;;;2.25;1.50;;;;;;;;;;4952753;28;20053;-77
2023/07/14 09:26:53;;;;;;;8.38;1.55;;;;;;;;;;4958376;28;20039;-77
2023/07/14 09:29:24;;;;;;;6.20;1.92;;;;;;;;;;4969677;28;20525;-76
2023/07/14 09:32:00;;;;;;;7.93;1.55;;;;;;;;;;4964535;28;20106;-79
2023/07/14 09:34:42;;;;;;;2.35;1.30;;;;;;;;;;4973523;28;20072;-74
2023/07/14 09:37:21;;;;;;;3.40;1.40;;;;;;;;;;4952248;28;20027;-77
2023/07/14 09:39:51;;;;;;;5.03;1.88;;;;;;;;;;4952663;28;20035;-75
2023/07/14 09:42:29;;;;;;;3.47;1.60;;;;;;;;;;4961480;28;20070;-75
2023/07/14 09:45:10;;;;;;;3.97;1.50;;;;;;;;;;4955634;28;20037;-75
2023/07/14 09:47:36;;;;;;;7.50;1.70;;;;;;;;;;4951819;28;20102;-75
2023/07/14 09:50:02;;;;;;;7.47;1.55;;;;;;;;;;4958003;28;20034;-74
2023/07/14 09:52:48;;;;;;;4.68;1.33;;;;;;;;;;4962353;28;20414;-77
2023/07/14 09:55:14;;;;;;;2.85;1.50;;;;;;;;;;4963138;28;20034;-82
2023/07/14 09:57:43;;;;;;;4.47;1.70;;;;;;;;;;4971197;28;20387;-79
2023/07/14 10:00:39;;;;;;;2.65;1.88;;;;;;;;;;4961545;28;20121;-77
2023/07/14 10:03:19;;;;;;;2.80;1.40;;;;;;;;;;4960532;28;20065;-77
2023/07/14 10:06:03;;;;;;;3.40;1.48;;;;;;;;;;4958103;28;20049;-77
2023/07/14 10:08:34;;;;;;;2.05;1.65;;;;;;;;;;4953685;28;20027;-73
2023/07/14 10:11:19;;;;;;;5.22;1.60;;;;;;;;;;4973528;28;20770;-74
2023/07/14 10:13:57;;;;;;;3.08;1.13;;;;;;;;;;4983265;28;20159;-76
2023/07/14 10:16:24;;;;;;;3.30;1.30;;;;;;;;;;4958730;28;20056;-76
2023/07/14 10:18:58;;;;;;;2.58;1.40;;;;;;;;;;4971821;28;20064;-75
2023/07/14 10:21:30;;;;;;;2.85;1.35;;;;;;;;;;4959385;28;20042;-75
2023/07/14 10:24:06;;;;;;;4.68;1.30;;;;;;;;;;4976008;28;20511;-75
2023/07/14 10:26:39;;;;;;;4.28;1.05;;;;;;;;;;4968279;28;20164;-77
2023/07/14 10:29:26;;;;;;;1.65;1.02;;;;;;;;;;4967006;28;20535;-78
2023/07/14 10:32:38;;;;;;;5.35;1.15;;;;;;;;;;4954300;28;20046;-78
2023/07/14 10:35:20;;;;;;;4.22;1.70;;;;;;;;;;4955596;28;20121;-75
2023/07/14 10:37:58;;;;;;;3.85;1.38;;;;;;;;;;4953925;28;20031;-74
2023/07/14 10:40:29;;;;;;;2.47;1.52;;;;;;;;;;4943086;28;20590;-74
2023/07/14 10:43:03;;;;;;;3.63;1.70;;;;;;;;;;4970488;28;20488;-73
2023/07/14 10:45:30;;;;;;;6.15;1.05;;;;;;;;;;4956333;28;20049;-73
2023/07/14 10:48:06;;;;;;;3.83;1.50;;;;;;;;;;4969495;28;20041;-74
2023/07/14 10:50:35;;;;;;;2.13;1.40;;;;;;;;;;4982346;28;20058;-74
2023/07/14 10:53:11;;;;;;;3.40;1.40;;;;;;;;;;4967189;28;20057;-75
2023/07/14 10:55:39;;;;;;;2.30;1.33;;;;;;;;;;4987864;28;20030;-76
2023/07/14 10:58:13;;;;;;;3.00;1.80;;;;;;;;;;4957674;28;20348;-75
2023/07/14 11:00:52;;;;;;;4.15;1.45;;;;;;;;;;4956365;28;20054;-75
2023/07/14 11:03:32;;;;;;;5.20;1.20;;;;;;;;;;4969271;28;20451;-74
2023/07/14 11:06:21;;;;;;;4.72;1.30;;;;;;;;;;4967613;28;20419;-75
2023/07/14 11:08:54;;;;;;;4.65;1.30;;;;;;;;;;4980157;28;20049;-76
2023/07/14 11:11:32;;;;;;;5.32;1.33;;;;;;;;;;4973911;28;20034;-74
2023/07/14 11:14:14;;;;;;;7.25;1.17;;;;;;;;;;4972773;28;20483;-75
2023/07/14 11:16:55;;;;;;;3.58;1.40;;;;;;;;;;4971618;28;20080;-75
2023/07/14 11:19:49;;;;;;;2.80;1.67;;;;;;;;;;4953236;28;20027;-76
2023/07/14 11:22:36;;;;;;;3.50;1.30;;;;;;;;;;4956742;28;20031;-74
2023/07/14 11:25:10;;;;;;;3.90;1.20;;;;;;;;;;4974297;28;20486;-74
2023/07/14 11:27:45;;;;;;;5.30;1.83;;;;;;;;;;4955206;28;20031;-74
2023/07/14 11:30:19;;;;;;;3.22;1.23;;;;;;;;;;4980138;28;20109;-74
2023/07/14 11:33:03;;;;;;;4.22;1.45;;;;;;;;;;4956587;28;20432;-72
2023/07/14 11:35:57;;;;;;;3.03;1.42;;;;;;;;;;4962254;28;20034;-75
2023/07/14 11:38:25;;;;;;;2.88;1.33;;;;;;;;;;4970066;28;20129;-75
2023/07/14 11:40:53;;;;;;;6.05;1.33;;;;;;;;;;4965883;28;20030;-77
2023/07/14 11:43:29;;;;;;;1.50;1.10;;;;;;;;;;4970814;28;20045;-75
2023/07/14 11:46:02;;;;;;;3.28;1.20;;;;;;;;;;4979106;28;20022;-76
2023/07/14 11:48:43;;;;;;;1.50;1.20;;;;;;;;;;4980578;28;20015;-76
2023/07/14 11:51:15;;;;;;;3.00;1.38;;;;;;;;;;4965038;28;20034;-76
2023/07/14 11:54:03;;;;;;;3.08;1.42;;;;;;;;;;4975058;28;20560;-76
2023/07/14 11:56:35;;;;;;;3.97;1.27;;;;;;;;;;4959905;28;20065;-77
2023/07/14 11:59:26;;;;;;;4.28;1.30;;;;;;;;;;4962611;28;20391;-74
2023/07/14 12:01:54;;;;;;;1.05;0.85;;;;;;;;;;4974958;28;20124;-76
2023/07/14 12:04:32;;;;;;;1.83;1.20;;;;;;;;;;4985228;28;20046;-77
2023/07/14 12:07:19;;;;;;;4.43;1.40;;;;;;;;;;4961693;28;20438;-74
2023/07/14 12:10:01;;;;;;;1.75;1.15;;;;;;;;;;4973407;28;20030;-73
2023/07/14 12:12:30;;;;;;;4.07;1.42;;;;;;;;;;4952259;28;20078;-72
2023/07/14 12:14:55;;;;;;;2.97;1.55;;;;;;;;;;4961046;28;20029;-73
2023/07/14 12:17:44;;;;;;;5.63;1.77;;;;;;;;;;4958207;28;20018;-72
2023/07/14 12:20:12;;;;;;;3.50;1.40;;;;;;;;;;4986042;28;20026;-73
2023/07/14 12:22:48;;;;;;;3.88;1.60;;;;;;;;;;4958852;28;20046;-73
2023/07/14 12:25:17;;;;;;;4.47;1.35;;;;;;;;;;4989146;28;20041;-73
2023/07/14 12:27:51;;;;;;;3.10;1.55;;;;;;;;;;4955445;28;20134;-73
2023/07/14 12:30:20;;;;;;;3.25;1.10;;;;;;;;;;4956684;28;20046;-73
2023/07/14 12:32:46;;;;;;;3.38;1.45;;;;;;;;;;4962774;28;20557;-73
2023/07/14 12:35:16;;;;;;;4.68;1.65;;;;;;;;;;4980816;28;20789;-73
2023/07/14 12:37:42;;;;;;;3.63;1.50;;;;;;;;;;4959543;28;20631;-74
2023/07/14 12:40:20;;;;;;;2.30;1.33;;;;;;;;;;4955283;28;20128;-74
2023/07/14 12:42:48;;;;;;;4.60;1.30;;;;;;;;;;4959908;28;20090;-73
2023/07/14 12:45:17;;;;;;;2.72;1.30;;;;;;;;;;4956370;28;20053;-74
2023/07/14 12:47:46;;;;;;;1.60;1.05;;;;;;;;;;4984387;28;20410;-73
2023/07/14 12:50:25;;;;;;;2.15;1.20;;;;;;;;;;4940586;28;20086;-74
2023/07/14 12:52:50;;;;;;;2.63;1.10;;;;;;;;;;4963768;28;20085;-74
2023/07/14 12:55:25;;;;;;;3.22;0.95;;;;;;;;;;4965108;28;20030;-74
2023/07/14 12:57:51;;;;;;;1.67;1.30;;;;;;;;;;4956650;28;20130;-74
2023/07/14 13:00:37;;;;;;;4.65;1.63;;;;;;;;;;4985064;28;20023;-74
2023/07/14 13:03:10;;;;;;;1.33;1.20;;;;;;;;;;4954855;28;20042;-74
2023/07/14 13:05:44;;;;;;;2.15;1.40;;;;;;;;;;4984429;28;20034;-72
2023/07/14 13:08:18;;;;;;;4.30;1.67;;;;;;;;;;4941286;28;20462;-73
2023/07/14 13:10:44;;;;;;;1.77;1.15;;;;;;;;;;4981686;28;20030;-76
2023/07/14 13:13:24;;;;;;;3.60;1.20;;;;;;;;;;4963350;28;20030;-75
2023/07/14 13:15:54;;;;;;;7.90;1.77;;;;;;;;;;4984187;28;20038;-74
2023/07/14 13:18:36;;;;;;;2.25;1.50;;;;;;;;;;4973222;28;20188;-73
2023/07/14 13:21:05;;;;;;;1.95;1.20;;;;;;;;;;4989046;28;20030;-73
2023/07/14 13:23:33;;;;;;;4.55;1.55;;;;;;;;;;4957656;28;20113;-74
2023/07/14 13:26:12;;;;;;;4.18;1.73;;;;;;;;;;4985646;28;20026;-75
2023/07/14 13:28:54;;;;;;;2.03;1.33;;;;;;;;;;4976243;28;20660;-76
2023/07/14 13:31:24;;;;;;;3.00;1.33;;;;;;;;;;4987242;28;20041;-74
2023/07/14 13:33:50;;;;;;;3.65;1.50;;;;;;;;;;4953207;28;20035;-76
2023/07/14 13:36:24;;;;;;;2.28;1.45;;;;;;;;;;4977745;28;20041;-74
2023/07/14 13:38:50;;;;;;;2.70;1.40;;;;;;;;;;4970458;28;20023;-76
2023/07/14 13:41:23;;;;;;;3.25;1.42;;;;;;;;;;4972991;28;20045;-72
2023/07/14 13:43:49;;;;;;;3.22;1.35;;;;;;;;;;4985429;28;20092;-76
2023/07/14 13:46:19;;;;;;;4.85;1.10;;;;;;;;;;4950729;28;20023;-75
2023/07/14 13:48:44;;;;;;;2.45;1.23;;;;;;;;;;4962833;28;20367;-76
2023/07/14 13:51:20;;;;;;;5.22;1.48;;;;;;;;;;4964155;28;20039;-76
2023/07/14 13:53:47;;;;;;;3.03;1.60;;;;;;;;;;4988894;28;20101;-76
2023/07/14 13:56:19;;;;;;;5.03;1.67;;;;;;;;;;4960247;28;20030;-76
2023/07/14 13:58:46;;;;;;;6.75;1.65;;;;;;;;;;4975015;28;20022;-72
2023/07/14 14:01:17;;;;;;;3.97;1.35;;;;;;;;;;4980449;28;20034;-73
2023/07/14 14:03:42;;;;;;;8.85;1.63;;;;;;;;;;4973406;28;20031;-73
2023/07/14 14:06:12;;;;;;;5.10;1.30;;;;;;;;;;4959032;28;20030;-73
2023/07/14 14:08:39;;;;;;;4.22;1.42;;;;;;;;;;4968514;28;20418;-72
2023/07/14 14:11:05;;;;;;;2.10;1.02;;;;;;;;;;4966484;28;20064;-74
2023/07/14 14:13:31;;;;;;;1.95;1.38;;;;;;;;;;4961830;28;20169;-75
2023/07/14 14:15:57;;;;;;;2.38;1.42;;;;;;;;;;4971679;28;20046;-75
2023/07/14 14:18:28;;;;;;;2.08;1.35;;;;;;;;;;4974000;28;20784;-74
2023/07/14 14:20:55;;;;;;;6.10;1.50;;;;;;;;;;4984315;28;20029;-76
2023/07/14 14:23:22;;;;;;;3.63;1.33;;;;;;;;;;4989489;28;20026;-74
2023/07/14 14:25:48;;;;;;;2.88;1.10;;;;;;;;;;4981357;28;20400;-76
2023/07/14 14:28:15;;;;;;;3.55;1.20;;;;;;;;;;4959202;28;20514;-75
2023/07/14 14:30:44;;;;;;;1.70;1.30;;;;;;;;;;4991983;28;20096;-75
2023/07/14 14:33:27;;;;;;;1.67;1.00;;;;;;;;;;4982473;28;20037;-77
2023/07/14 14:35:55;;;;;;;2.28;1.20;;;;;;;;;;4989702;28;20036;-76
2023/07/14 14:38:30;;;;;;;4.60;1.42;;;;;;;;;;4960489;28;20030;-75
2023/07/14 14:40:59;;;;;;;3.80;1.60;;;;;;;;;;4974427;28;20026;-78
2023/07/14 14:43:27;;;;;;;4.35;1.67;;;;;;;;;;4961502;28;20109;-74
2023/07/14 14:45:58;;;;;;;5.13;1.33;;;;;;;;;;4971120;28;20125;-74
2023/07/14 14:48:29;;;;;;;2.65;1.08;;;;;;;;;;4975345;28;20048;-75
2023/07/14 14:50:56;;;;;;;5.47;1.40;;;;;;;;;;4981848;28;20714;-73
2023/07/14 14:53:26;;;;;;;3.17;1.60;;;;;;;;;;4961542;28;20034;-74
2023/07/14 14:55:55;;;;;;;2.33;1.27;;;;;;;;;;4976220;28;20441;-73
2023/07/14 14:58:23;;;;;;;4.10;1.65;;;;;;;;;;4989395;28;20026;-74
2023/07/14 15:01:14;;;;;;;4.22;1.50;;;;;;;;;;4984103;28;20583;-75
2023/07/14 15:03:39;;;;;;;;;;;;;;;;;;4972841;28;20080;-75
2023/07/14 15:06:05;;;;;;;5.55;1.38;;;;;;;;;;4974934;28;20000;-74
2023/07/14 15:08:31;;;;;;;7.30;3.00;;;;;;;;;;4957188;28;20049;-75